sensor_id;sensor_type;location;lat;lon;timestamp;temperature;humidity
18648;DHT22;9453;50.294;18.644;2023-02-13T05:03:32;3.90;99.90
18648;DHT22;9453;50.294;18.644;2023-02-13T05:05:59;4.00;99.90
18648;DHT22;9453;50.294;18.644;2023-02-13T05:08:26;4.00;99.90
18648;DHT22;9453;50.294;18.644;2023-02-13T05:10:53;4.00;99.90
18648;DHT22;9453;50.294;18.644;2023-02-13T05:13:20;4.00;99.90
18648;DHT22;9453;50.294;18.644;2023-02-13T05:15:47;3.90;99.90
18648;DHT22;9453;50.294;18.644;2023-02-13T05:18:14;3.90;99.90
18648;DHT22;9453;50.294;18.644;2023-02-13T05:20:43;3.80;99.90
18648;DHT22;9453;50.294;18.644;2023-02-13T05:23:31;3.70;99.90
18648;DHT22;9453;50.294;18.644;2023-02-13T05:25:57;3.70;99.90
18648;DHT22;9453;50.294;18.644;2023-02-13T05:28:24;3.80;99.90
18648;DHT22;9453;50.294;18.644;2023-02-13T05:31:08;3.80;99.90
18648;DHT22;9453;50.294;18.644;2023-02-13T05:33:36;3.80;99.90
18648;DHT22;9453;50.294;18.644;2023-02-13T05:36:05;3.80;99.90
18648;DHT22;9453;50.294;18.644;2023-02-13T05:38:32;3.80;99.90
18648;DHT22;9453;50.294;18.644;2023-02-13T05:40:59;3.80;99.90
18648;DHT22;9453;50.294;18.644;2023-02-13T05:43:43;3.90;99.90
18648;DHT22;9453;50.294;18.644;2023-02-13T05:46:10;3.90;99.90
18648;DHT22;9453;50.294;18.644;2023-02-13T05:48:37;3.90;99.90
18648;DHT22;9453;50.294;18.644;2023-02-13T05:51:06;3.90;99.90
18648;DHT22;9453;50.294;18.644;2023-02-13T05:53:33;3.90;99.90
18648;DHT22;9453;50.294;18.644;2023-02-13T05:56:01;3.90;99.90
18648;DHT22;9453;50.294;18.644;2023-02-13T05:58:28;3.90;99.90
18648;DHT22;9453;50.294;18.644;2023-02-13T06:00:58;3.80;99.90
18648;DHT22;9453;50.294;18.644;2023-02-13T06:03:26;3.80;99.90
18648;DHT22;9453;50.294;18.644;2023-02-13T06:05:54;3.70;99.90
18648;DHT22;9453;50.294;18.644;2023-02-13T06:08:23;3.70;99.90
18648;DHT22;9453;50.294;18.644;2023-02-13T06:10:51;3.70;99.90
18648;DHT22;9453;50.294;18.644;2023-02-13T06:13:18;3.60;99.90
18648;DHT22;9453;50.294;18.644;2023-02-13T06:15:45;3.60;99.90
18648;DHT22;9453;50.294;18.644;2023-02-13T06:18:12;3.50;99.90
18648;DHT22;9453;50.294;18.644;2023-02-13T06:20:39;3.50;99.90
18648;DHT22;9453;50.294;18.644;2023-02-13T06:23:06;3.40;99.90
18648;DHT22;9453;50.294;18.644;2023-02-13T06:25:35;3.50;99.90
18648;DHT22;9453;50.294;18.644;2023-02-13T06:28:02;3.50;99.90
18648;DHT22;9453;50.294;18.644;2023-02-13T06:30:29;3.60;99.90
18648;DHT22;9453;50.294;18.644;2023-02-13T06:33:10;3.70;99.90
18648;DHT22;9453;50.294;18.644;2023-02-13T06:35:37;3.70;99.90
18648;DHT22;9453;50.294;18.644;2023-02-13T06:38:04;3.60;99.90
18648;DHT22;9453;50.294;18.644;2023-02-13T06:40:31;3.60;99.90
18648;DHT22;9453;50.294;18.644;2023-02-13T06:43:01;3.60;99.90
18648;DHT22;9453;50.294;18.644;2023-02-13T06:45:28;3.60;99.90
18648;DHT22;9453;50.294;18.644;2023-02-13T06:47:55;3.60;99.90
18648;DHT22;9453;50.294;18.644;2023-02-13T06:50:22;3.60;99.90
18648;DHT22;9453;50.294;18.644;2023-02-13T06:52:50;3.60;99.90
18648;DHT22;9453;50.294;18.644;2023-02-13T06:55:17;3.60;99.90
18648;DHT22;9453;50.294;18.644;2023-02-13T06:57:45;3.70;99.90
18648;DHT22;9453;50.294;18.644;2023-02-13T07:00:17;3.80;99.90
18648;DHT22;9453;50.294;18.644;2023-02-13T07:02:45;3.90;99.90
18648;DHT22;9453;50.294;18.644;2023-02-13T07:05:13;4.00;99.90
18648;DHT22;9453;50.294;18.644;2023-02-13T07:07:41;4.10;99.90
18648;DHT22;9453;50.294;18.644;2023-02-13T07:10:10;4.30;99.90
18648;DHT22;9453;50.294;18.644;2023-02-13T07:12:38;4.40;99.90
18648;DHT22;9453;50.294;18.644;2023-02-13T07:15:05;4.50;99.90
18648;DHT22;9453;50.294;18.644;2023-02-13T07:17:34;4.60;99.90
18648;DHT22;9453;50.294;18.644;2023-02-13T07:20:01;4.60;99.90
18648;DHT22;9453;50.294;18.644;2023-02-13T07:22:30;4.80;99.90
18648;DHT22;9453;50.294;18.644;2023-02-13T07:24:57;4.90;99.90
18648;DHT22;9453;50.294;18.644;2023-02-13T07:27:25;5.00;99.90
18648;DHT22;9453;50.294;18.644;2023-02-13T07:29:54;5.00;99.90
18648;DHT22;9453;50.294;18.644;2023-02-13T07:32:21;5.10;99.90
18648;DHT22;9453;50.294;18.644;2023-02-13T07:34:50;5.30;99.90
18648;DHT22;9453;50.294;18.644;2023-02-13T07:37:17;5.20;99.90
18648;DHT22;9453;50.294;18.644;2023-02-13T07:39:44;5.20;99.90
18648;DHT22;9453;50.294;18.644;2023-02-13T07:42:11;5.40;99.90
18648;DHT22;9453;50.294;18.644;2023-02-13T07:44:38;5.40;99.90
18648;DHT22;9453;50.294;18.644;2023-02-13T07:47:06;5.50;99.90
18648;DHT22;9453;50.294;18.644;2023-02-13T07:49:33;5.50;99.90
18648;DHT22;9453;50.294;18.644;2023-02-13T07:52:03;5.60;99.90
18648;DHT22;9453;50.294;18.644;2023-02-13T07:54:32;5.70;99.90
18648;DHT22;9453;50.294;18.644;2023-02-13T07:57:02;5.80;99.90
18648;DHT22;9453;50.294;18.644;2023-02-13T07:59:29;5.90;99.90
18648;DHT22;9453;50.294;18.644;2023-02-13T08:01:56;6.00;99.90
18648;DHT22;9453;50.294;18.644;2023-02-13T08:04:23;6.10;99.90
18648;DHT22;9453;50.294;18.644;2023-02-13T08:06:50;6.10;99.90
18648;DHT22;9453;50.294;18.644;2023-02-13T08:09:20;6.20;99.90
18648;DHT22;9453;50.294;18.644;2023-02-13T08:12:07;6.20;99.90
18648;DHT22;9453;50.294;18.644;2023-02-13T08:14:35;6.30;99.90
18648;DHT22;9453;50.294;18.644;2023-02-13T08:17:02;6.30;99.90
18648;DHT22;9453;50.294;18.644;2023-02-13T08:19:29;6.30;99.90
18648;DHT22;9453;50.294;18.644;2023-02-13T08:21:56;6.40;99.90
18648;DHT22;9453;50.294;18.644;2023-02-13T08:24:24;6.60;99.90
18648;DHT22;9453;50.294;18.644;2023-02-13T08:26:51;6.40;99.90
18648;DHT22;9453;50.294;18.644;2023-02-13T08:29:18;6.40;99.90
18648;DHT22;9453;50.294;18.644;2023-02-13T08:31:45;6.40;99.90
18648;DHT22;9453;50.294;18.644;2023-02-13T08:34:12;6.50;99.90
18648;DHT22;9453;50.294;18.644;2023-02-13T08:36:39;6.60;99.90
18648;DHT22;9453;50.294;18.644;2023-02-13T08:39:07;6.50;99.90
18648;DHT22;9453;50.294;18.644;2023-02-13T08:41:36;6.30;99.90
18648;DHT22;9453;50.294;18.644;2023-02-13T08:44:03;6.40;99.90
18648;DHT22;9453;50.294;18.644;2023-02-13T08:46:30;6.40;99.90
18648;DHT22;9453;50.294;18.644;2023-02-13T08:48:57;6.40;99.90
18648;DHT22;9453;50.294;18.644;2023-02-13T08:51:24;6.40;99.90
18648;DHT22;9453;50.294;18.644;2023-02-13T08:53:51;6.40;99.90
18648;DHT22;9453;50.294;18.644;2023-02-13T08:56:18;6.50;99.90
18648;DHT22;9453;50.294;18.644;2023-02-13T08:58:48;6.40;99.90
18648;DHT22;9453;50.294;18.644;2023-02-13T09:01:16;6.40;99.90
18648;DHT22;9453;50.294;18.644;2023-02-13T09:03:43;6.50;99.90
18648;DHT22;9453;50.294;18.644;2023-02-13T09:06:10;6.50;99.90
18648;DHT22;9453;50.294;18.644;2023-02-13T09:08:37;6.50;99.90
18648;DHT22;9453;50.294;18.644;2023-02-13T09:11:04;6.50;99.90
18648;DHT22;9453;50.294;18.644;2023-02-13T09:13:32;6.60;99.90
18648;DHT22;9453;50.294;18.644;2023-02-13T09:16:04;6.60;99.90
18648;DHT22;9453;50.294;18.644;2023-02-13T09:18:32;6.80;99.90
18648;DHT22;9453;50.294;18.644;2023-02-13T09:21:00;6.90;99.90
18648;DHT22;9453;50.294;18.644;2023-02-13T09:23:30;6.90;99.90
18648;DHT22;9453;50.294;18.644;2023-02-13T09:25:58;7.00;99.90
18648;DHT22;9453;50.294;18.644;2023-02-13T09:28:27;7.00;99.90
18648;DHT22;9453;50.294;18.644;2023-02-13T09:30:55;7.10;99.90
18648;DHT22;9453;50.294;18.644;2023-02-13T09:33:24;7.20;99.90
18648;DHT22;9453;50.294;18.644;2023-02-13T09:35:52;7.20;99.90
18648;DHT22;9453;50.294;18.644;2023-02-13T09:38:19;7.30;99.90
18648;DHT22;9453;50.294;18.644;2023-02-13T09:40:49;7.40;99.90
18648;DHT22;9453;50.294;18.644;2023-02-13T09:43:25;7.40;99.90
18648;DHT22;9453;50.294;18.644;2023-02-13T09:45:56;7.30;99.90
18648;DHT22;9453;50.294;18.644;2023-02-13T09:48:28;7.20;99.90
18648;DHT22;9453;50.294;18.644;2023-02-13T09:50:56;7.20;99.90
18648;DHT22;9453;50.294;18.644;2023-02-13T09:53:25;7.10;99.90
18648;DHT22;9453;50.294;18.644;2023-02-13T09:56:02;7.10;99.90
18648;DHT22;9453;50.294;18.644;2023-02-13T09:58:40;7.10;99.90
18648;DHT22;9453;50.294;18.644;2023-02-13T10:01:20;7.20;99.90
18648;DHT22;9453;50.294;18.644;2023-02-13T10:06:41;7.20;99.90
18648;DHT22;9453;50.294;18.644;2023-02-13T10:09:20;7.20;99.90
18648;DHT22;9453;50.294;18.644;2023-02-13T10:12:12;7.30;99.90
18648;DHT22;9453;50.294;18.644;2023-02-13T10:14:51;7.40;99.90
18648;DHT22;9453;50.294;18.644;2023-02-13T10:17:25;7.50;99.90
18648;DHT22;9453;50.294;18.644;2023-02-13T10:19:59;7.60;99.90
18648;DHT22;9453;50.294;18.644;2023-02-13T10:22:31;7.70;99.90
18648;DHT22;9453;50.294;18.644;2023-02-13T10:25:03;7.70;99.90
18648;DHT22;9453;50.294;18.644;2023-02-13T10:27:34;7.70;99.90
18648;DHT22;9453;50.294;18.644;2023-02-13T10:30:06;7.50;99.90
18648;DHT22;9453;50.294;18.644;2023-02-13T10:32:43;7.40;99.90
18648;DHT22;9453;50.294;18.644;2023-02-13T10:35:23;7.40;99.90
18648;DHT22;9453;50.294;18.644;2023-02-13T10:37:55;7.40;99.90
18648;DHT22;9453;50.294;18.644;2023-02-13T10:40:30;7.60;99.90
18648;DHT22;9453;50.294;18.644;2023-02-13T10:43:03;7.70;99.90
18648;DHT22;9453;50.294;18.644;2023-02-13T10:48:13;7.70;99.90
18648;DHT22;9453;50.294;18.644;2023-02-13T10:50:53;7.80;99.90
18648;DHT22;9453;50.294;18.644;2023-02-13T10:53:29;7.80;99.90
18648;DHT22;9453;50.294;18.644;2023-02-13T10:56:11;7.80;99.90
18648;DHT22;9453;50.294;18.644;2023-02-13T10:58:53;8.00;99.90
18648;DHT22;9453;50.294;18.644;2023-02-13T11:01:26;8.30;99.90
18648;DHT22;9453;50.294;18.644;2023-02-13T11:04:05;8.50;99.90
18648;DHT22;9453;50.294;18.644;2023-02-13T11:06:37;8.50;99.90
18648;DHT22;9453;50.294;18.644;2023-02-13T11:09:08;8.50;99.90
18648;DHT22;9453;50.294;18.644;2023-02-13T11:11:40;8.60;99.90
18648;DHT22;9453;50.294;18.644;2023-02-13T11:14:11;8.60;99.90
18648;DHT22;9453;50.294;18.644;2023-02-13T11:16:42;8.70;99.90
18648;DHT22;9453;50.294;18.644;2023-02-13T11:19:19;8.50;99.90
18648;DHT22;9453;50.294;18.644;2023-02-13T11:21:53;8.20;99.90
18648;DHT22;9453;50.294;18.644;2023-02-13T11:24:22;8.10;99.90
18648;DHT22;9453;50.294;18.644;2023-02-13T11:26:52;8.10;99.90
18648;DHT22;9453;50.294;18.644;2023-02-13T11:29:23;8.00;99.90
18648;DHT22;9453;50.294;18.644;2023-02-13T11:32:08;7.70;99.90
18648;DHT22;9453;50.294;18.644;2023-02-13T11:34:43;7.60;99.90
18648;DHT22;9453;50.294;18.644;2023-02-13T11:37:18;7.50;99.90
18648;DHT22;9453;50.294;18.644;2023-02-13T11:39:47;7.40;99.90
18648;DHT22;9453;50.294;18.644;2023-02-13T11:42:18;7.40;99.90
18648;DHT22;9453;50.294;18.644;2023-02-13T11:44:50;7.50;99.90
18648;DHT22;9453;50.294;18.644;2023-02-13T11:47:34;7.50;99.90
18648;DHT22;9453;50.294;18.644;2023-02-13T11:50:18;7.70;99.90
18648;DHT22;9453;50.294;18.644;2023-02-13T11:52:54;7.70;99.90
18648;DHT22;9453;50.294;18.644;2023-02-13T11:55:31;7.80;99.90
18648;DHT22;9453;50.294;18.644;2023-02-13T11:58:00;7.80;99.90
18648;DHT22;9453;50.294;18.644;2023-02-13T12:00:31;7.80;99.90
18648;DHT22;9453;50.294;18.644;2023-02-13T12:03:23;7.70;99.90
18648;DHT22;9453;50.294;18.644;2023-02-13T12:06:02;7.50;99.90
18648;DHT22;9453;50.294;18.644;2023-02-13T12:08:33;7.50;99.90
18648;DHT22;9453;50.294;18.644;2023-02-13T12:11:03;7.40;99.90
18648;DHT22;9453;50.294;18.644;2023-02-13T12:13:35;7.30;99.90
18648;DHT22;9453;50.294;18.644;2023-02-13T12:16:09;7.20;99.90
18648;DHT22;9453;50.294;18.644;2023-02-13T12:18:40;7.10;99.90
18648;DHT22;9453;50.294;18.644;2023-02-13T12:21:19;6.90;99.90
18648;DHT22;9453;50.294;18.644;2023-02-13T12:23:56;6.80;99.90
18648;DHT22;9453;50.294;18.644;2023-02-13T12:26:30;6.80;99.90
18648;DHT22;9453;50.294;18.644;2023-02-13T12:29:17;6.80;99.90
18648;DHT22;9453;50.294;18.644;2023-02-13T12:32:03;6.90;99.90
18648;DHT22;9453;50.294;18.644;2023-02-13T12:35:03;6.80;99.90
18648;DHT22;9453;50.294;18.644;2023-02-13T12:37:51;6.90;99.90
18648;DHT22;9453;50.294;18.644;2023-02-13T12:40:41;6.90;99.90
18648;DHT22;9453;50.294;18.644;2023-02-13T12:46:19;7.10;99.90
18648;DHT22;9453;50.294;18.644;2023-02-13T12:48:55;7.10;99.90
18648;DHT22;9453;50.294;18.644;2023-02-13T12:51:36;7.20;99.90
18648;DHT22;9453;50.294;18.644;2023-02-13T12:54:25;7.10;99.90
18648;DHT22;9453;50.294;18.644;2023-02-13T12:57:13;7.20;99.90
18648;DHT22;9453;50.294;18.644;2023-02-13T12:59:54;7.20;99.90
18648;DHT22;9453;50.294;18.644;2023-02-13T13:02:45;7.20;99.90
18648;DHT22;9453;50.294;18.644;2023-02-13T13:05:22;7.30;99.90
18648;DHT22;9453;50.294;18.644;2023-02-13T13:08:16;7.30;99.90
18648;DHT22;9453;50.294;18.644;2023-02-13T13:10:53;7.30;99.90
18648;DHT22;9453;50.294;18.644;2023-02-13T13:13:37;7.40;99.90
18648;DHT22;9453;50.294;18.644;2023-02-13T13:16:15;7.40;99.90
18648;DHT22;9453;50.294;18.644;2023-02-13T13:18:57;7.40;99.90
18648;DHT22;9453;50.294;18.644;2023-02-13T13:21:37;7.50;99.90
18648;DHT22;9453;50.294;18.644;2023-02-13T13:24:22;7.30;99.90
18648;DHT22;9453;50.294;18.644;2023-02-13T13:26:51;7.10;99.90
18648;DHT22;9453;50.294;18.644;2023-02-13T13:29:25;6.90;99.90
18648;DHT22;9453;50.294;18.644;2023-02-13T13:31:56;6.80;99.90
18648;DHT22;9453;50.294;18.644;2023-02-13T13:34:25;6.70;99.90
18648;DHT22;9453;50.294;18.644;2023-02-13T13:36:58;6.60;99.90
18648;DHT22;9453;50.294;18.644;2023-02-13T13:39:40;6.60;99.90
18648;DHT22;9453;50.294;18.644;2023-02-13T13:42:13;6.70;99.90
18648;DHT22;9453;50.294;18.644;2023-02-13T13:45:07;6.80;99.90
18648;DHT22;9453;50.294;18.644;2023-02-13T13:47:52;6.80;99.90
18648;DHT22;9453;50.294;18.644;2023-02-13T13:50:23;6.80;99.90
18648;DHT22;9453;50.294;18.644;2023-02-13T13:53:08;6.70;99.90
18648;DHT22;9453;50.294;18.644;2023-02-13T13:56:00;6.60;99.90
18648;DHT22;9453;50.294;18.644;2023-02-13T13:58:33;6.70;99.90
18648;DHT22;9453;50.294;18.644;2023-02-13T14:01:26;6.60;99.90
18648;DHT22;9453;50.294;18.644;2023-02-13T14:03:56;6.50;99.90
18648;DHT22;9453;50.294;18.644;2023-02-13T14:06:25;6.40;99.90
18648;DHT22;9453;50.294;18.644;2023-02-13T14:09:35;6.30;99.90
18648;DHT22;9453;50.294;18.644;2023-02-13T14:12:36;6.30;99.90
18648;DHT22;9453;50.294;18.644;2023-02-13T14:15:03;6.20;99.90
18648;DHT22;9453;50.294;18.644;2023-02-13T14:17:54;6.10;99.90
18648;DHT22;9453;50.294;18.644;2023-02-13T14:20:48;6.10;99.90
18648;DHT22;9453;50.294;18.644;2023-02-13T14:23:30;6.00;99.90
18648;DHT22;9453;50.294;18.644;2023-02-13T14:32:16;6.00;99.90
18648;DHT22;9453;50.294;18.644;2023-02-13T14:34:52;5.90;99.90
18648;DHT22;9453;50.294;18.644;2023-02-13T14:37:23;6.00;99.90
18648;DHT22;9453;50.294;18.644;2023-02-13T14:40:27;6.00;99.90
18648;DHT22;9453;50.294;18.644;2023-02-13T14:43:05;5.90;99.90
18648;DHT22;9453;50.294;18.644;2023-02-13T14:45:46;5.90;99.90
18648;DHT22;9453;50.294;18.644;2023-02-13T14:48:14;5.80;99.90
18648;DHT22;9453;50.294;18.644;2023-02-13T14:50:49;5.80;99.90
18648;DHT22;9453;50.294;18.644;2023-02-13T14:53:20;5.80;99.90
18648;DHT22;9453;50.294;18.644;2023-02-13T14:55:55;5.70;99.90
18648;DHT22;9453;50.294;18.644;2023-02-13T14:58:25;5.70;99.90
18648;DHT22;9453;50.294;18.644;2023-02-13T15:00:58;5.70;99.90
18648;DHT22;9453;50.294;18.644;2023-02-13T15:03:35;5.70;99.90
18648;DHT22;9453;50.294;18.644;2023-02-13T15:06:13;5.70;99.90
18648;DHT22;9453;50.294;18.644;2023-02-13T15:08:47;5.60;99.90
18648;DHT22;9453;50.294;18.644;2023-02-13T15:11:32;5.60;99.90
18648;DHT22;9453;50.294;18.644;2023-02-13T15:14:22;5.60;99.90
18648;DHT22;9453;50.294;18.644;2023-02-13T15:16:53;5.60;99.90
18648;DHT22;9453;50.294;18.644;2023-02-13T15:19:23;5.60;99.90
18648;DHT22;9453;50.294;18.644;2023-02-13T15:21:54;5.60;99.90
18648;DHT22;9453;50.294;18.644;2023-02-13T15:24:22;5.40;99.90
18648;DHT22;9453;50.294;18.644;2023-02-13T15:27:01;5.40;99.90
18648;DHT22;9453;50.294;18.644;2023-02-13T15:29:30;5.40;99.90
18648;DHT22;9453;50.294;18.644;2023-02-13T15:31:57;5.40;99.90
18648;DHT22;9453;50.294;18.644;2023-02-13T15:34:27;5.40;99.90
18648;DHT22;9453;50.294;18.644;2023-02-13T15:36:56;5.30;99.90
18648;DHT22;9453;50.294;18.644;2023-02-13T15:39:25;5.40;99.90
18648;DHT22;9453;50.294;18.644;2023-02-13T15:41:55;5.40;99.90
18648;DHT22;9453;50.294;18.644;2023-02-13T15:44:27;5.40;99.90
18648;DHT22;9453;50.294;18.644;2023-02-13T15:46:59;5.30;99.90
18648;DHT22;9453;50.294;18.644;2023-02-13T15:49:37;5.30;99.90
18648;DHT22;9453;50.294;18.644;2023-02-13T15:52:12;5.20;99.90
18648;DHT22;9453;50.294;18.644;2023-02-13T15:54:48;5.20;99.90
18648;DHT22;9453;50.294;18.644;2023-02-13T15:57:15;5.20;99.90
18648;DHT22;9453;50.294;18.644;2023-02-13T15:59:43;5.20;99.90
18648;DHT22;9453;50.294;18.644;2023-02-13T16:02:14;5.20;99.90
18648;DHT22;9453;50.294;18.644;2023-02-13T16:04:43;5.10;99.90
18648;DHT22;9453;50.294;18.644;2023-02-13T16:07:13;5.10;99.90
18648;DHT22;9453;50.294;18.644;2023-02-13T16:09:40;5.10;99.90
18648;DHT22;9453;50.294;18.644;2023-02-13T16:12:17;5.00;99.90
18648;DHT22;9453;50.294;18.644;2023-02-13T16:14:49;5.10;99.90
18648;DHT22;9453;50.294;18.644;2023-02-13T16:17:24;5.20;99.90
18648;DHT22;9453;50.294;18.644;2023-02-13T16:19:58;5.20;99.90
18648;DHT22;9453;50.294;18.644;2023-02-13T16:22:33;5.20;99.90
18648;DHT22;9453;50.294;18.644;2023-02-13T16:25:13;5.10;99.90
18648;DHT22;9453;50.294;18.644;2023-02-13T16:27:42;5.10;99.90
18648;DHT22;9453;50.294;18.644;2023-02-13T16:30:24;5.20;99.90
18648;DHT22;9453;50.294;18.644;2023-02-13T16:33:16;5.20;99.90
18648;DHT22;9453;50.294;18.644;2023-02-13T16:35:46;5.10;99.90
18648;DHT22;9453;50.294;18.644;2023-02-13T16:38:36;5.10;99.90
18648;DHT22;9453;50.294;18.644;2023-02-13T16:41:05;5.10;99.90
18648;DHT22;9453;50.294;18.644;2023-02-13T16:43:42;5.20;99.90
18648;DHT22;9453;50.294;18.644;2023-02-13T16:46:24;5.10;99.90
18648;DHT22;9453;50.294;18.644;2023-02-13T16:51:48;5.20;99.90
18648;DHT22;9453;50.294;18.644;2023-02-13T16:54:21;5.20;99.90
18648;DHT22;9453;50.294;18.644;2023-02-13T16:56:50;5.20;99.90
18648;DHT22;9453;50.294;18.644;2023-02-13T16:59:23;5.30;99.90
18648;DHT22;9453;50.294;18.644;2023-02-13T17:02:15;5.30;99.90
18648;DHT22;9453;50.294;18.644;2023-02-13T17:04:45;5.40;99.90
18648;DHT22;9453;50.294;18.644;2023-02-13T17:07:14;5.50;99.90
18648;DHT22;9453;50.294;18.644;2023-02-13T17:09:43;5.60;99.90
18648;DHT22;9453;50.294;18.644;2023-02-13T17:12:15;5.60;99.90
18648;DHT22;9453;50.294;18.644;2023-02-13T17:14:43;5.70;99.90
18648;DHT22;9453;50.294;18.644;2023-02-13T17:17:11;5.60;99.90
18648;DHT22;9453;50.294;18.644;2023-02-13T17:19:39;5.70;99.90
18648;DHT22;9453;50.294;18.644;2023-02-13T17:22:06;5.70;99.90
18648;DHT22;9453;50.294;18.644;2023-02-13T17:24:34;5.70;99.90
18648;DHT22;9453;50.294;18.644;2023-02-13T17:27:02;5.70;99.90
18648;DHT22;9453;50.294;18.644;2023-02-13T17:29:30;5.60;99.90
18648;DHT22;9453;50.294;18.644;2023-02-13T17:31:56;5.50;99.90
18648;DHT22;9453;50.294;18.644;2023-02-13T17:34:23;5.70;99.90
18648;DHT22;9453;50.294;18.644;2023-02-13T17:36:51;5.60;99.90
18648;DHT22;9453;50.294;18.644;2023-02-13T17:39:18;5.60;99.90
18648;DHT22;9453;50.294;18.644;2023-02-13T17:41:45;5.70;99.90
18648;DHT22;9453;50.294;18.644;2023-02-13T17:44:13;5.70;99.90
18648;DHT22;9453;50.294;18.644;2023-02-13T17:46:40;5.70;99.90
18648;DHT22;9453;50.294;18.644;2023-02-13T17:49:07;5.70;99.90
18648;DHT22;9453;50.294;18.644;2023-02-13T17:51:35;5.70;99.90
18648;DHT22;9453;50.294;18.644;2023-02-13T17:54:03;5.70;99.90
18648;DHT22;9453;50.294;18.644;2023-02-13T17:56:32;5.70;99.90
18648;DHT22;9453;50.294;18.644;2023-02-13T17:58:59;5.70;99.90
18648;DHT22;9453;50.294;18.644;2023-02-13T18:01:28;5.70;99.90
18648;DHT22;9453;50.294;18.644;2023-02-13T18:04:02;5.80;99.90
18648;DHT22;9453;50.294;18.644;2023-02-13T18:06:38;5.70;99.90
18648;DHT22;9453;50.294;18.644;2023-02-13T18:09:06;5.70;99.90
18648;DHT22;9453;50.294;18.644;2023-02-13T18:11:40;5.70;99.90
18648;DHT22;9453;50.294;18.644;2023-02-13T18:14:20;5.70;99.90
18648;DHT22;9453;50.294;18.644;2023-02-13T18:16:49;5.70;99.90
18648;DHT22;9453;50.294;18.644;2023-02-13T18:19:16;5.60;99.90
18648;DHT22;9453;50.294;18.644;2023-02-13T18:21:43;5.70;99.90
18648;DHT22;9453;50.294;18.644;2023-02-13T18:24:10;5.60;99.90
18648;DHT22;9453;50.294;18.644;2023-02-13T18:26:37;5.60;99.90
18648;DHT22;9453;50.294;18.644;2023-02-13T18:29:04;5.70;99.90
18648;DHT22;9453;50.294;18.644;2023-02-13T18:31:31;5.60;99.90
18648;DHT22;9453;50.294;18.644;2023-02-13T18:34:02;5.60;99.90
18648;DHT22;9453;50.294;18.644;2023-02-13T18:36:29;5.60;99.90
18648;DHT22;9453;50.294;18.644;2023-02-13T18:38:56;5.50;99.90
18648;DHT22;9453;50.294;18.644;2023-02-13T18:41:23;5.40;99.90
18648;DHT22;9453;50.294;18.644;2023-02-13T18:43:50;5.40;99.90
18648;DHT22;9453;50.294;18.644;2023-02-13T18:46:17;5.50;99.90
18648;DHT22;9453;50.294;18.644;2023-02-13T18:48:44;5.50;99.90
18648;DHT22;9453;50.294;18.644;2023-02-13T18:51:21;5.60;99.90
18648;DHT22;9453;50.294;18.644;2023-02-13T18:53:49;5.50;99.90
18648;DHT22;9453;50.294;18.644;2023-02-13T18:56:17;5.50;99.90
18648;DHT22;9453;50.294;18.644;2023-02-13T18:58:44;5.60;99.90
18648;DHT22;9453;50.294;18.644;2023-02-13T19:03:38;5.50;99.90
18648;DHT22;9453;50.294;18.644;2023-02-13T19:06:06;5.50;99.90
18648;DHT22;9453;50.294;18.644;2023-02-13T19:08:34;5.50;99.90
18648;DHT22;9453;50.294;18.644;2023-02-13T19:11:05;5.60;99.90
18648;DHT22;9453;50.294;18.644;2023-02-13T19:13:33;5.60;99.90
18648;DHT22;9453;50.294;18.644;2023-02-13T19:19:22;5.60;99.90
18648;DHT22;9453;50.294;18.644;2023-02-13T19:21:50;5.60;99.90
18648;DHT22;9453;50.294;18.644;2023-02-13T19:24:18;5.60;99.90
18648;DHT22;9453;50.294;18.644;2023-02-13T19:26:48;5.60;99.90
18648;DHT22;9453;50.294;18.644;2023-02-13T19:29:15;5.60;99.90
18648;DHT22;9453;50.294;18.644;2023-02-13T19:31:42;5.60;99.90
18648;DHT22;9453;50.294;18.644;2023-02-13T19:37:30;5.70;99.90
18648;DHT22;9453;50.294;18.644;2023-02-13T19:39:59;5.60;99.90
18648;DHT22;9453;50.294;18.644;2023-02-13T19:42:26;5.70;99.90
18648;DHT22;9453;50.294;18.644;2023-02-13T19:44:53;5.70;99.90
18648;DHT22;9453;50.294;18.644;2023-02-13T19:47:19;5.70;99.90
18648;DHT22;9453;50.294;18.644;2023-02-13T19:49:49;5.70;99.90
18648;DHT22;9453;50.294;18.644;2023-02-13T19:52:16;5.70;99.90
18648;DHT22;9453;50.294;18.644;2023-02-13T19:54:43;5.70;99.90
18648;DHT22;9453;50.294;18.644;2023-02-13T19:57:12;5.70;99.90
18648;DHT22;9453;50.294;18.644;2023-02-13T19:59:39;5.70;99.90
18648;DHT22;9453;50.294;18.644;2023-02-13T20:02:07;5.80;99.90
18648;DHT22;9453;50.294;18.644;2023-02-13T20:04:34;5.80;99.90
18648;DHT22;9453;50.294;18.644;2023-02-13T20:07:03;5.80;99.90
18648;DHT22;9453;50.294;18.644;2023-02-13T20:12:34;5.80;99.90
18648;DHT22;9453;50.294;18.644;2023-02-13T20:15:01;5.80;99.90
18648;DHT22;9453;50.294;18.644;2023-02-13T20:17:29;5.80;99.90
18648;DHT22;9453;50.294;18.644;2023-02-13T20:19:56;5.80;99.90
18648;DHT22;9453;50.294;18.644;2023-02-13T20:22:23;5.70;99.90
18648;DHT22;9453;50.294;18.644;2023-02-13T20:24:50;5.80;99.90
18648;DHT22;9453;50.294;18.644;2023-02-13T20:27:17;5.80;99.90
18648;DHT22;9453;50.294;18.644;2023-02-13T20:29:46;5.80;99.90
18648;DHT22;9453;50.294;18.644;2023-02-13T20:32:13;5.80;99.90
18648;DHT22;9453;50.294;18.644;2023-02-13T20:34:40;5.70;99.90
18648;DHT22;9453;50.294;18.644;2023-02-13T20:37:10;5.80;99.90
18648;DHT22;9453;50.294;18.644;2023-02-13T20:39:39;5.70;99.90
18648;DHT22;9453;50.294;18.644;2023-02-13T20:42:09;5.60;99.90
18648;DHT22;9453;50.294;18.644;2023-02-13T20:44:37;5.70;99.90
18648;DHT22;9453;50.294;18.644;2023-02-13T20:47:05;5.70;99.90
18648;DHT22;9453;50.294;18.644;2023-02-13T20:49:32;5.80;99.90
18648;DHT22;9453;50.294;18.644;2023-02-13T20:51:59;5.70;99.90
18648;DHT22;9453;50.294;18.644;2023-02-13T20:54:26;5.70;99.90
18648;DHT22;9453;50.294;18.644;2023-02-13T20:56:53;5.70;99.90
18648;DHT22;9453;50.294;18.644;2023-02-13T20:59:20;5.80;99.90
18648;DHT22;9453;50.294;18.644;2023-02-13T21:01:47;5.80;99.90
18648;DHT22;9453;50.294;18.644;2023-02-13T21:04:16;5.80;99.90
18648;DHT22;9453;50.294;18.644;2023-02-13T21:06:44;5.80;99.90
18648;DHT22;9453;50.294;18.644;2023-02-13T21:09:12;5.80;99.90
18648;DHT22;9453;50.294;18.644;2023-02-13T21:11:42;5.80;99.90
18648;DHT22;9453;50.294;18.644;2023-02-13T21:14:09;5.80;99.90
18648;DHT22;9453;50.294;18.644;2023-02-13T21:16:39;5.80;99.90
18648;DHT22;9453;50.294;18.644;2023-02-13T21:19:10;5.80;99.90
18648;DHT22;9453;50.294;18.644;2023-02-13T21:21:38;5.70;99.90
18648;DHT22;9453;50.294;18.644;2023-02-13T21:24:11;5.70;99.90
18648;DHT22;9453;50.294;18.644;2023-02-13T21:26:39;5.70;99.90
18648;DHT22;9453;50.294;18.644;2023-02-13T21:29:07;5.70;99.90
18648;DHT22;9453;50.294;18.644;2023-02-13T21:31:36;5.70;99.90
18648;DHT22;9453;50.294;18.644;2023-02-13T21:34:04;5.70;99.90
18648;DHT22;9453;50.294;18.644;2023-02-13T21:36:33;5.80;99.90
18648;DHT22;9453;50.294;18.644;2023-02-13T21:39:03;5.70;99.90
18648;DHT22;9453;50.294;18.644;2023-02-13T21:41:30;5.70;99.90
18648;DHT22;9453;50.294;18.644;2023-02-13T21:44:04;5.70;99.90
18648;DHT22;9453;50.294;18.644;2023-02-13T21:46:38;5.70;99.90